Time;durP1;ratioP1;P1;durP2;ratioP2;P2;SDS_P1;SDS_P2;PMS_P1;PMS_P2;Temp;Humidity;BMP_temperature;BMP_pressure;BME280_temperature;BME280_humidity;BME280_pressure;Samples;Min_cycle;Max_cycle;Signal;HPM_P1;HPM_P2
2022/05/01 00:01:42;;;;;;;23.88;14.68;;;7.80;99.90;;;;;;5050580;28;20075;-74
2022/05/01 00:04:08;;;;;;;21.38;14.88;;;7.70;99.90;;;;;;5049291;28;20017;-75
2022/05/01 00:06:34;;;;;;;23.48;14.95;;;7.70;99.90;;;;;;5050574;28;20116;-74
2022/05/01 00:09:01;;;;;;;25.13;14.48;;;7.70;99.90;;;;;;5050535;28;20337;-76
2022/05/01 00:11:28;;;;;;;24.48;14.57;;;7.60;99.90;;;;;;5050880;28;20107;-74
2022/05/01 00:13:53;;;;;;;26.20;14.90;;;7.60;99.90;;;;;;5050276;28;20024;-74
2022/05/01 00:16:19;;;;;;;22.42;14.98;;;7.60;99.90;;;;;;5050203;28;20044;-75
2022/05/01 00:18:45;;;;;;;23.13;14.77;;;7.60;99.90;;;;;;5050511;28;20151;-75
2022/05/01 00:21:11;;;;;;;24.20;15.07;;;7.50;99.90;;;;;;5050450;28;20060;-76
2022/05/01 00:23:38;;;;;;;25.75;15.82;;;7.50;99.90;;;;;;5050187;28;20029;-75
2022/05/01 00:26:05;;;;;;;24.25;14.73;;;7.50;99.90;;;;;;5050631;28;20021;-75
2022/05/01 00:28:32;;;;;;;25.27;15.40;;;7.50;99.90;;;;;;5050007;28;20132;-74
2022/05/01 00:30:58;;;;;;;24.13;15.60;;;7.50;99.90;;;;;;5050343;28;20053;-75
2022/05/01 00:36:25;;;;;;;25.92;15.70;;;7.40;99.90;;;;;;5050981;28;20163;-75
2022/05/01 00:38:54;;;;;;;24.52;14.88;;;7.40;99.90;;;;;;5052059;28;20047;-75
2022/05/01 00:41:23;;;;;;;25.23;15.43;;;7.30;99.90;;;;;;5054429;28;20067;-76
2022/05/01 00:43:58;;;;;;;25.00;15.38;;;7.30;99.90;;;;;;5054223;28;20104;-75
2022/05/01 00:46:24;;;;;;;25.10;15.93;;;7.30;99.90;;;;;;5054519;28;20096;-75
2022/05/01 00:48:50;;;;;;;25.65;16.23;;;7.20;99.90;;;;;;5054062;28;20100;-74
2022/05/01 00:51:16;;;;;;;27.45;16.48;;;7.20;99.90;;;;;;5054114;28;20390;-75
2022/05/01 00:53:43;;;;;;;26.02;16.02;;;7.20;99.90;;;;;;5054233;28;20427;-75
2022/05/01 00:56:09;;;;;;;24.95;16.23;;;7.20;99.90;;;;;;5053959;28;20086;-74
2022/05/01 00:58:35;;;;;;;26.10;16.08;;;7.10;99.90;;;;;;5053958;28;20033;-75
2022/05/01 01:01:01;;;;;;;25.00;15.95;;;7.10;99.90;;;;;;5054513;28;20025;-75
2022/05/01 01:03:26;;;;;;;27.02;16.65;;;7.10;99.90;;;;;;5054014;28;20028;-76
2022/05/01 01:05:52;;;;;;;24.50;16.67;;;7.10;99.90;;;;;;5053965;28;20097;-75
2022/05/01 01:08:18;;;;;;;26.00;16.33;;;7.00;99.90;;;;;;5053893;28;20025;-76
2022/05/01 01:10:43;;;;;;;26.42;16.58;;;7.00;99.90;;;;;;5053970;28;20021;-75
2022/05/01 01:13:09;;;;;;;26.67;15.57;;;7.00;99.90;;;;;;5053860;28;20021;-75
2022/05/01 01:15:36;;;;;;;25.48;16.23;;;7.00;99.90;;;;;;5053753;28;20025;-75
2022/05/01 01:18:02;;;;;;;27.27;16.73;;;7.00;99.90;;;;;;5052126;28;20056;-75
2022/05/01 01:20:28;;;;;;;25.83;16.98;;;7.00;99.90;;;;;;5053584;28;20021;-74
2022/05/01 01:22:56;;;;;;;25.10;16.40;;;6.90;99.90;;;;;;5053617;28;20096;-74
2022/05/01 01:25:26;;;;;;;26.92;17.13;;;6.90;99.90;;;;;;5053495;28;20116;-74
2022/05/01 01:27:56;;;;;;;26.38;17.77;;;6.90;99.90;;;;;;5054035;28;20021;-75
2022/05/01 01:33:06;;;;;;;31.95;17.40;;;6.90;99.90;;;;;;5053361;28;20130;-75
2022/05/01 01:35:35;;;;;;;30.45;18.70;;;6.80;99.90;;;;;;5053344;28;20052;-75
2022/05/01 01:38:08;;;;;;;30.48;18.40;;;6.80;99.90;;;;;;5053679;28;20091;-75
2022/05/01 01:40:49;;;;;;;27.40;18.15;;;6.80;99.90;;;;;;5053275;28;20128;-75
2022/05/01 01:43:23;;;;;;;30.05;18.05;;;6.80;99.90;;;;;;5053499;28;20017;-74
2022/05/01 01:45:49;;;;;;;30.08;17.75;;;6.80;99.90;;;;;;5053440;28;20032;-77
2022/05/01 01:48:17;;;;;;;30.23;17.45;;;6.70;99.90;;;;;;5053081;28;20029;-75
2022/05/01 01:50:44;;;;;;;29.75;17.95;;;6.70;99.90;;;;;;5052675;28;20028;-75
2022/05/01 01:53:11;;;;;;;29.70;17.48;;;6.70;99.90;;;;;;5052991;28;20028;-75
2022/05/01 01:55:38;;;;;;;29.23;17.55;;;6.70;99.90;;;;;;5053093;28;20095;-75
2022/05/01 01:58:05;;;;;;;27.17;16.67;;;6.60;99.90;;;;;;5051395;28;20033;-75
2022/05/01 02:00:31;;;;;;;28.35;16.55;;;6.60;99.90;;;;;;5051573;28;20071;-74
2022/05/01 02:02:57;;;;;;;28.00;16.58;;;6.60;99.90;;;;;;5052979;28;20033;-74
2022/05/01 02:05:23;;;;;;;24.33;15.38;;;6.60;99.90;;;;;;5053068;28;20460;-75
2022/05/01 02:07:49;;;;;;;25.77;16.00;;;6.60;99.90;;;;;;5052892;28;20033;-75
2022/05/01 02:10:14;;;;;;;25.42;14.82;;;6.60;99.90;;;;;;5052749;28;20049;-76
2022/05/01 02:12:40;;;;;;;24.00;14.90;;;6.50;99.90;;;;;;5025856;28;20099;-74
2022/05/01 02:15:06;;;;;;;23.95;15.98;;;6.50;99.90;;;;;;5012944;28;20050;-74
2022/05/01 02:17:33;;;;;;;26.35;16.10;;;6.50;99.90;;;;;;5012616;28;20108;-75
2022/05/01 02:19:59;;;;;;;29.38;16.48;;;6.50;99.90;;;;;;5012819;28;20470;-75
2022/05/01 02:22:24;;;;;;;26.10;16.42;;;6.50;99.90;;;;;;5012958;28;20102;-74
2022/05/01 02:24:50;;;;;;;23.23;15.43;;;6.50;99.90;;;;;;5011490;28;20025;-75
2022/05/01 02:27:16;;;;;;;24.90;15.23;;;6.40;99.90;;;;;;5012915;28;20033;-75
2022/05/01 02:29:42;;;;;;;22.55;15.20;;;6.40;99.90;;;;;;5012718;28;20030;-74
2022/05/01 02:32:07;;;;;;;23.17;15.10;;;6.40;99.90;;;;;;5011459;28;20030;-76
2022/05/01 02:34:33;;;;;;;25.42;15.52;;;6.40;99.90;;;;;;5012474;28;20022;-75
2022/05/01 02:36:59;;;;;;;23.27;15.10;;;6.30;99.90;;;;;;5012544;28;20065;-74
2022/05/01 02:39:25;;;;;;;25.70;15.18;;;6.30;99.90;;;;;;5012957;28;20028;-74
2022/05/01 02:41:50;;;;;;;24.60;15.82;;;6.30;99.90;;;;;;5013053;28;20381;-74
2022/05/01 02:44:16;;;;;;;24.52;15.35;;;6.30;99.90;;;;;;5012432;28;20109;-75
2022/05/01 02:46:42;;;;;;;24.35;15.43;;;6.30;99.90;;;;;;5012433;28;20034;-74
2022/05/01 02:49:08;;;;;;;25.73;16.08;;;6.20;99.90;;;;;;5012173;28;20029;-74
2022/05/01 02:51:34;;;;;;;24.08;15.35;;;6.20;99.90;;;;;;5012580;28;20482;-75
2022/05/01 02:54:04;;;;;;;25.83;15.90;;;6.20;99.90;;;;;;5012452;28;20299;-74
2022/05/01 02:56:30;;;;;;;26.10;15.23;;;6.20;99.90;;;;;;5012515;28;20080;-74
2022/05/01 02:58:57;;;;;;;26.73;15.77;;;6.20;99.90;;;;;;5011108;28;20038;-75
2022/05/01 03:01:23;;;;;;;24.20;15.98;;;6.10;99.90;;;;;;5011562;28;20474;-75
2022/05/01 03:03:48;;;;;;;23.92;15.73;;;6.10;99.90;;;;;;5012162;28;20104;-74
2022/05/01 03:06:14;;;;;;;25.63;16.20;;;6.10;99.90;;;;;;5012159;28;20455;-75
2022/05/01 03:08:39;;;;;;;30.27;18.00;;;6.10;99.90;;;;;;5012131;28;20018;-75
2022/05/01 03:11:05;;;;;;;26.85;16.88;;;6.10;99.90;;;;;;5011885;28;20433;-74
2022/05/01 03:13:30;;;;;;;28.40;17.10;;;6.10;99.90;;;;;;5012037;28;20034;-74
2022/05/01 03:15:56;;;;;;;29.05;17.88;;;6.10;99.90;;;;;;5011431;28;20026;-74
2022/05/01 03:23:50;;;;;;;26.95;17.00;;;6.00;99.90;;;;;;5011578;28;20077;-74
2022/05/01 03:26:18;;;;;;;29.33;18.15;;;6.00;99.90;;;;;;5011472;28;20394;-74
2022/05/01 03:28:44;;;;;;;29.23;16.75;;;6.00;99.90;;;;;;5011521;28;20378;-74
2022/05/01 03:31:11;;;;;;;31.50;17.65;;;6.00;99.90;;;;;;5011352;28;20076;-74
2022/05/01 03:33:37;;;;;;;31.08;17.80;;;5.90;99.90;;;;;;5011434;28;20040;-75
2022/05/01 03:36:06;;;;;;;28.92;17.25;;;5.90;99.90;;;;;;5010956;28;20022;-75
2022/05/01 03:38:33;;;;;;;28.02;18.42;;;5.90;99.90;;;;;;5011268;28;20042;-75
2022/05/01 03:40:58;;;;;;;28.88;17.83;;;5.90;99.90;;;;;;5011089;28;20029;-74
2022/05/01 03:43:24;;;;;;;26.48;17.75;;;5.90;99.90;;;;;;5011231;28;20022;-75
2022/05/01 03:45:49;;;;;;;28.95;17.52;;;5.90;99.90;;;;;;5009835;28;20026;-75
2022/05/01 03:48:15;;;;;;;31.33;17.67;;;5.80;99.90;;;;;;5010752;28;20109;-74
2022/05/01 03:50:40;;;;;;;30.98;17.52;;;5.80;99.90;;;;;;5010936;28;20079;-75
2022/05/01 03:53:07;;;;;;;29.05;18.25;;;5.80;99.90;;;;;;5010898;28;20509;-76
2022/05/01 03:55:33;;;;;;;29.33;17.20;;;5.80;99.90;;;;;;5010783;28;20033;-74
2022/05/01 03:58:00;;;;;;;28.75;17.40;;;5.80;99.90;;;;;;5011078;28;20111;-74
2022/05/01 04:00:27;;;;;;;29.77;17.35;;;5.80;99.90;;;;;;5011272;28;20026;-75
2022/05/01 04:02:53;;;;;;;28.52;17.00;;;5.70;99.90;;;;;;5010947;28;20026;-74
2022/05/01 04:05:18;;;;;;;28.90;18.17;;;5.70;99.90;;;;;;5010761;28;20108;-74
2022/05/01 04:07:44;;;;;;;30.20;18.33;;;5.70;99.90;;;;;;5010716;28;20030;-74
2022/05/01 04:10:11;;;;;;;28.25;17.20;;;5.80;99.90;;;;;;5010852;28;20109;-74
2022/05/01 04:12:42;;;;;;;29.85;17.52;;;5.70;99.90;;;;;;5010621;28;20030;-74
2022/05/01 04:15:09;;;;;;;27.83;17.58;;;5.70;99.90;;;;;;5010757;28;20030;-75
2022/05/01 04:17:38;;;;;;;30.48;17.45;;;5.70;99.90;;;;;;5010241;28;20050;-74
2022/05/01 04:20:06;;;;;;;31.05;17.73;;;5.70;99.90;;;;;;5010733;28;20037;-75
2022/05/01 04:22:37;;;;;;;30.90;18.13;;;5.70;99.90;;;;;;5010491;28;20088;-75
2022/05/01 04:25:03;;;;;;;28.45;17.55;;;5.70;99.90;;;;;;5010770;28;20521;-75
2022/05/01 04:27:29;;;;;;;27.38;17.45;;;5.70;99.90;;;;;;5010672;28;20026;-76
2022/05/01 04:29:54;;;;;;;29.17;18.20;;;5.70;99.90;;;;;;5010478;28;20025;-74
2022/05/01 04:32:21;;;;;;;29.65;17.75;;;5.80;99.90;;;;;;5010726;28;20022;-74
2022/05/01 04:34:46;;;;;;;31.80;19.05;;;5.80;99.90;;;;;;5010495;28;20046;-73
2022/05/01 04:37:12;;;;;;;34.13;19.17;;;5.80;99.90;;;;;;5010548;28;20069;-75
2022/05/01 04:39:37;;;;;;;34.92;19.65;;;5.80;99.90;;;;;;5010656;28;20438;-75
2022/05/01 04:42:03;;;;;;;33.50;19.65;;;5.80;99.90;;;;;;5010559;28;20053;-74
2022/05/01 04:44:29;;;;;;;32.92;19.55;;;5.90;99.90;;;;;;5010777;28;20049;-75
2022/05/01 04:46:54;;;;;;;36.40;20.70;;;5.90;99.90;;;;;;5010543;28;20371;-75
2022/05/01 04:49:20;;;;;;;36.25;20.48;;;5.90;99.90;;;;;;5010489;28;20022;-75
2022/05/01 04:51:46;;;;;;;37.97;20.48;;;6.00;99.90;;;;;;5010365;28;20022;-74
2022/05/01 04:54:12;;;;;;;38.05;22.20;;;6.00;99.90;;;;;;5010570;28;20021;-74
2022/05/01 04:59:22;;;;;;;34.22;20.33;;;6.10;99.90;;;;;;5010236;28;20125;-75
2022/05/01 05:01:48;;;;;;;36.13;20.55;;;6.10;99.90;;;;;;5010129;28;20112;-75
2022/05/01 05:04:13;;;;;;;34.70;20.02;;;6.10;99.90;;;;;;5010468;28;20054;-73
2022/05/01 05:06:39;;;;;;;35.00;21.00;;;6.20;99.90;;;;;;5010387;28;20076;-75
2022/05/01 05:11:48;;;;;;;35.38;20.35;;;6.30;99.90;;;;;;5010187;28;20037;-74
2022/05/01 05:14:14;;;;;;;33.80;19.08;;;6.30;99.90;;;;;;5010231;28;20030;-74
2022/05/01 05:16:41;;;;;;;38.15;20.60;;;6.40;99.90;;;;;;5009705;28;20056;-74
2022/05/01 05:19:06;;;;;;;35.42;19.83;;;6.50;99.90;;;;;;5010105;28;20014;-76
2022/05/01 05:21:32;;;;;;;36.13;20.63;;;6.50;99.90;;;;;;5010046;28;20033;-75
2022/05/01 05:23:57;;;;;;;35.92;20.85;;;6.60;99.90;;;;;;5009027;28;20034;-74
2022/05/01 05:26:23;;;;;;;34.35;20.20;;;6.70;99.90;;;;;;5013625;28;20100;-74
2022/05/01 05:28:48;;;;;;;34.00;20.48;;;6.70;99.90;;;;;;5013387;28;20372;-74
2022/05/01 05:31:14;;;;;;;38.95;22.75;;;6.80;99.90;;;;;;5013632;28;20033;-74
2022/05/01 05:33:39;;;;;;;39.50;21.77;;;6.90;99.90;;;;;;5013260;28;20018;-75
2022/05/01 05:36:05;;;;;;;35.03;20.88;;;7.00;99.90;;;;;;5013445;28;20022;-75
2022/05/01 05:38:33;;;;;;;34.90;21.50;;;7.10;99.90;;;;;;5013177;28;20030;-75
2022/05/01 05:40:59;;;;;;;34.33;21.55;;;7.20;99.90;;;;;;5013166;28;20053;-74
2022/05/01 05:43:24;;;;;;;39.50;23.05;;;7.30;99.90;;;;;;5013351;28;20053;-74
2022/05/01 05:45:50;;;;;;;39.92;21.85;;;7.40;99.90;;;;;;5013395;28;20505;-74
2022/05/01 05:48:16;;;;;;;38.80;22.25;;;7.40;99.90;;;;;;5013084;28;20478;-75
2022/05/01 05:50:41;;;;;;;36.13;22.55;;;7.50;99.90;;;;;;5013263;28;20711;-75
2022/05/01 05:53:07;;;;;;;40.10;22.15;;;7.60;99.90;;;;;;5013245;28;20117;-75
2022/05/01 05:55:33;;;;;;;40.28;23.15;;;7.70;99.90;;;;;;5013153;28;20022;-74
2022/05/01 05:58:00;;;;;;;35.70;22.50;;;7.80;99.90;;;;;;5013124;28;20034;-76
2022/05/01 06:00:26;;;;;;;36.28;21.48;;;7.90;99.90;;;;;;5013314;28;20029;-75
2022/05/01 06:02:51;;;;;;;39.03;22.42;;;8.00;99.90;;;;;;5013355;28;20021;-75
2022/05/01 06:05:17;;;;;;;40.05;23.15;;;8.00;99.90;;;;;;5013479;28;20034;-75
2022/05/01 06:07:42;;;;;;;37.88;22.77;;;8.20;99.90;;;;;;5012816;28;20025;-75
2022/05/01 06:10:08;;;;;;;42.45;23.33;;;8.20;99.90;;;;;;5012766;28;20088;-75
2022/05/01 06:12:41;;;;;;;41.47;24.35;;;8.30;99.90;;;;;;5011335;28;20045;-75
2022/05/01 06:15:07;;;;;;;40.33;24.13;;;8.40;99.90;;;;;;5013244;28;20030;-75
2022/05/01 06:17:32;;;;;;;40.28;24.48;;;8.50;99.90;;;;;;5012539;28;20072;-75
2022/05/01 06:19:58;;;;;;;39.05;23.65;;;8.60;99.90;;;;;;5016403;28;20026;-75
2022/05/01 06:22:23;;;;;;;36.72;23.00;;;8.60;99.90;;;;;;5012448;28;20022;-78
2022/05/01 06:24:49;;;;;;;39.85;23.67;;;8.70;99.90;;;;;;5012532;28;20026;-75
2022/05/01 06:27:16;;;;;;;41.80;23.77;;;8.80;99.90;;;;;;5012500;28;20030;-75
2022/05/01 06:29:41;;;;;;;40.38;23.77;;;8.90;99.90;;;;;;5012301;28;20043;-76
2022/05/01 06:32:08;;;;;;;40.63;23.08;;;9.00;99.90;;;;;;5028648;28;20465;-76
2022/05/01 06:34:35;;;;;;;39.40;22.17;;;9.00;99.90;;;;;;5029609;28;20014;-75
2022/05/01 06:37:00;;;;;;;36.80;22.90;;;9.10;99.90;;;;;;5019254;28;20021;-75
2022/05/01 06:39:26;;;;;;;37.47;22.65;;;9.20;99.90;;;;;;5032009;28;20083;-74
2022/05/01 06:41:53;;;;;;;40.75;23.95;;;9.20;99.90;;;;;;5032141;28;20018;-75
2022/05/01 06:44:19;;;;;;;39.60;23.75;;;9.30;99.90;;;;;;5032225;28;20028;-74
2022/05/01 06:46:44;;;;;;;42.40;23.15;;;9.40;99.90;;;;;;5027883;28;20034;-74
2022/05/01 06:49:11;;;;;;;36.30;22.77;;;9.40;99.90;;;;;;5033122;28;20413;-74
2022/05/01 06:51:36;;;;;;;34.67;22.65;;;9.40;99.90;;;;;;5032959;28;20025;-75
2022/05/01 06:54:03;;;;;;;37.78;22.67;;;9.50;99.90;;;;;;5028016;28;20032;-75
2022/05/01 06:56:28;;;;;;;32.50;20.63;;;9.50;99.90;;;;;;5026936;28;20065;-76
2022/05/01 06:58:54;;;;;;;33.33;20.50;;;9.60;99.90;;;;;;5019100;28;20060;-74
2022/05/01 07:01:19;;;;;;;30.17;19.73;;;9.60;99.90;;;;;;5022532;28;20105;-75
2022/05/01 07:03:46;;;;;;;34.17;19.23;;;9.60;99.90;;;;;;4999356;28;20459;-75
2022/05/01 07:06:12;;;;;;;33.45;19.85;;;9.70;99.90;;;;;;5020686;28;20406;-74
2022/05/01 07:08:37;;;;;;;31.15;19.75;;;9.70;99.90;;;;;;5016440;28;20034;-76
2022/05/01 07:11:03;;;;;;;35.58;21.10;;;9.80;99.90;;;;;;5021898;28;20021;-75
2022/05/01 07:13:28;;;;;;;32.33;19.52;;;9.90;99.90;;;;;;5020650;28;20021;-76
2022/05/01 07:15:54;;;;;;;33.80;19.95;;;9.90;99.90;;;;;;5023126;28;20018;-74
2022/05/01 07:18:20;;;;;;;32.85;18.27;;;10.00;99.90;;;;;;5022191;28;20025;-75
2022/05/01 07:20:47;;;;;;;30.90;18.50;;;10.00;99.90;;;;;;5022387;28;20021;-75
2022/05/01 07:23:12;;;;;;;31.13;17.63;;;10.10;99.90;;;;;;5022261;28;20405;-75
2022/05/01 07:25:38;;;;;;;29.42;17.88;;;10.10;99.90;;;;;;5011957;28;20053;-75
2022/05/01 07:28:04;;;;;;;29.75;17.45;;;10.20;99.90;;;;;;5024482;28;20091;-74
2022/05/01 07:30:29;;;;;;;30.65;17.55;;;10.30;99.90;;;;;;5032063;28;20025;-75
2022/05/01 07:32:55;;;;;;;25.88;16.25;;;10.30;99.90;;;;;;5029708;28;20410;-74
2022/05/01 07:35:20;;;;;;;27.00;16.27;;;10.30;99.90;;;;;;5017651;28;20018;-73
2022/05/01 07:37:47;;;;;;;30.13;16.77;;;10.40;99.90;;;;;;5012306;28;20029;-74
2022/05/01 07:40:13;;;;;;;27.48;15.45;;;10.50;99.90;;;;;;5012976;28;20022;-73
2022/05/01 07:42:38;;;;;;;21.27;13.77;;;10.60;99.90;;;;;;5024008;28;20045;-74
2022/05/01 07:45:04;;;;;;;25.38;14.73;;;10.70;99.90;;;;;;5010583;28;20022;-75
2022/05/01 07:47:30;;;;;;;23.63;14.30;;;10.80;99.90;;;;;;5010014;28;20036;-73
2022/05/01 07:49:55;;;;;;;24.92;14.88;;;10.90;99.90;;;;;;5013643;28;20022;-75
2022/05/01 07:52:21;;;;;;;22.10;13.73;;;11.00;99.90;;;;;;5024926;28;20030;-75
2022/05/01 07:54:47;;;;;;;20.38;12.25;;;11.10;99.90;;;;;;5022117;28;20088;-74
2022/05/01 07:57:12;;;;;;;20.20;13.48;;;11.20;99.90;;;;;;5018601;28;20034;-74
2022/05/01 07:59:38;;;;;;;17.52;11.68;;;11.40;99.90;;;;;;5018780;28;20093;-75
2022/05/01 08:02:04;;;;;;;17.55;11.55;;;11.50;99.90;;;;;;5010706;28;20053;-75
2022/05/01 08:04:29;;;;;;;18.50;11.38;;;11.70;99.90;;;;;;5013624;28;20018;-77
2022/05/01 08:06:56;;;;;;;22.67;12.00;;;11.90;99.90;;;;;;5011792;28;20028;-75
2022/05/01 08:09:22;;;;;;;20.88;12.88;;;12.10;99.90;;;;;;5011534;28;20469;-74
2022/05/01 08:11:47;;;;;;;15.55;9.20;;;12.20;99.90;;;;;;5013505;28;20041;-75
2022/05/01 08:14:13;;;;;;;15.93;10.30;;;12.30;99.90;;;;;;5013393;28;20482;-74
2022/05/01 08:16:40;;;;;;;19.58;10.60;;;12.40;99.90;;;;;;5011477;28;20064;-75
2022/05/01 08:21:50;;;;;;;15.77;10.35;;;12.50;99.90;;;;;;5010833;28;20033;-75
2022/05/01 08:24:16;;;;;;;14.18;8.85;;;12.50;99.90;;;;;;5019383;28;20025;-75
2022/05/01 08:26:46;;;;;;;16.08;8.10;;;12.50;99.90;;;;;;5019348;28;20084;-75
2022/05/01 08:29:14;;;;;;;13.50;8.55;;;12.60;99.90;;;;;;5013364;28;20702;-75
2022/05/01 08:31:39;;;;;;;12.65;8.10;;;12.70;99.90;;;;;;5018837;28;20366;-75
2022/05/01 08:34:05;;;;;;;13.23;8.93;;;12.80;99.90;;;;;;5029515;28;20029;-75
2022/05/01 08:36:31;;;;;;;12.40;8.75;;;12.90;99.90;;;;;;5021430;28;20033;-75
2022/05/01 08:38:57;;;;;;;12.48;8.02;;;12.90;99.90;;;;;;5021027;28;20014;-75
2022/05/01 08:41:24;;;;;;;11.30;7.60;;;13.00;99.90;;;;;;5019467;28;20030;-74
2022/05/01 08:43:51;;;;;;;13.48;7.75;;;13.00;99.90;;;;;;5013575;28;20040;-76
2022/05/01 08:46:25;;;;;;;11.50;8.02;;;13.10;99.90;;;;;;5012780;28;20022;-74
2022/05/01 08:49:04;;;;;;;12.95;7.57;;;13.20;99.90;;;;;;5012650;28;20025;-75
2022/05/01 08:51:32;;;;;;;11.25;7.93;;;13.30;99.90;;;;;;5012223;28;20022;-75
2022/05/01 08:53:58;;;;;;;16.35;8.75;;;13.40;99.90;;;;;;5012582;28;20030;-75
2022/05/01 08:56:25;;;;;;;10.60;7.55;;;13.40;99.90;;;;;;5009646;28;20041;-75
2022/05/01 08:58:51;;;;;;;12.45;8.05;;;13.50;99.90;;;;;;5010612;28;20509;-73
2022/05/01 09:01:18;;;;;;;12.30;8.07;;;13.60;99.90;;;;;;5020042;28;20375;-75
2022/05/01 09:03:44;;;;;;;12.60;8.90;;;13.80;99.90;;;;;;5017589;28;20040;-73
2022/05/01 09:06:11;;;;;;;13.70;7.75;;;13.80;99.90;;;;;;5013866;28;20243;-74
2022/05/01 09:08:40;;;;;;;12.63;7.75;;;13.90;99.90;;;;;;5024874;28;20040;-74
2022/05/01 09:13:53;;;;;;;13.80;7.72;;;13.90;99.90;;;;;;5031388;28;20160;-74
2022/05/01 09:16:19;;;;;;;11.30;7.93;;;14.00;99.90;;;;;;5026442;28;20784;-74
2022/05/01 09:18:46;;;;;;;10.85;7.15;;;14.10;99.90;;;;;;5031841;28;20044;-73
2022/05/01 09:21:13;;;;;;;10.43;7.43;;;14.20;99.90;;;;;;5032321;28;20030;-76
2022/05/01 09:23:46;;;;;;;12.82;8.18;;;14.40;99.90;;;;;;5017121;28;20048;-75
2022/05/01 09:26:17;;;;;;;13.13;7.43;;;14.60;99.90;;;;;;5034249;28;20040;-76
2022/05/01 09:28:54;;;;;;;10.60;7.35;;;14.80;99.40;;;;;;5029175;28;20308;-74
2022/05/01 09:31:48;;;;;;;12.15;7.47;;;14.90;98.10;;;;;;5027945;28;20030;-75
2022/05/01 09:34:29;;;;;;;13.35;7.45;;;14.90;96.90;;;;;;5037382;28;20018;-75
2022/05/01 09:36:56;;;;;;;12.07;8.23;;;14.90;96.50;;;;;;5031693;28;20033;-74
2022/05/01 09:39:23;;;;;;;10.07;7.10;;;15.00;95.90;;;;;;5026686;28;20017;-74
2022/05/01 09:41:50;;;;;;;10.55;7.78;;;14.90;95.30;;;;;;5026063;28;20105;-74
2022/05/01 09:44:17;;;;;;;10.70;7.53;;;14.90;94.70;;;;;;5030594;28;20013;-74
2022/05/01 09:46:44;;;;;;;12.40;7.32;;;14.80;93.60;;;;;;5024168;28;20446;-74
2022/05/01 09:49:15;;;;;;;8.07;7.18;;;14.70;94.10;;;;;;5026772;28;20105;-75
2022/05/01 09:51:43;;;;;;;12.18;7.60;;;14.70;93.50;;;;;;5028405;28;20030;-74
2022/05/01 09:54:16;;;;;;;11.02;7.25;;;14.70;93.50;;;;;;5032864;28;20033;-74
2022/05/01 09:56:46;;;;;;;13.02;7.68;;;14.80;93.40;;;;;;5028091;28;20090;-74
2022/05/01 09:59:13;;;;;;;12.13;7.78;;;14.90;93.00;;;;;;5026153;28;20444;-75
2022/05/01 10:01:40;;;;;;;10.43;6.97;;;15.10;93.10;;;;;;5018778;28;20072;-75
2022/05/01 10:04:06;;;;;;;11.25;6.60;;;15.20;92.00;;;;;;5028490;28;20018;-74
2022/05/01 10:06:32;;;;;;;10.10;6.88;;;15.20;91.00;;;;;;5023265;28;20013;-75
2022/05/01 10:08:58;;;;;;;10.52;6.80;;;15.30;89.40;;;;;;5029564;28;20141;-75
2022/05/01 10:11:26;;;;;;;11.35;6.95;;;15.20;89.40;;;;;;5026182;28;20029;-74
2022/05/01 10:13:51;;;;;;;8.27;6.18;;;15.30;89.20;;;;;;5034850;28;20021;-76
2022/05/01 10:16:17;;;;;;;8.48;6.50;;;15.30;87.90;;;;;;5037258;28;20637;-75
2022/05/01 10:18:45;;;;;;;11.00;7.28;;;15.50;88.60;;;;;;5036613;28;20134;-75
2022/05/01 10:21:11;;;;;;;10.73;7.13;;;15.60;87.50;;;;;;5022050;28;20025;-75
2022/05/01 10:23:39;;;;;;;11.45;7.10;;;15.60;86.10;;;;;;5020175;28;20032;-75
2022/05/01 10:26:14;;;;;;;9.38;6.95;;;15.70;86.00;;;;;;5017663;28;20030;-75
2022/05/01 10:29:15;;;;;;;10.38;7.13;;;15.80;85.70;;;;;;5018946;28;20503;-75
2022/05/01 10:34:53;;;;;;;11.73;7.18;;;16.00;83.90;;;;;;5024285;28;20569;-75
2022/05/01 10:37:46;;;;;;;13.80;7.80;;;16.00;83.40;;;;;;5023146;28;20061;-74
2022/05/01 10:40:12;;;;;;;10.07;7.10;;;16.10;81.70;;;;;;5017033;28;20033;-75
2022/05/01 10:42:47;;;;;;;9.23;6.95;;;16.30;81.60;;;;;;5019128;28;20026;-74
2022/05/01 10:45:21;;;;;;;9.32;6.68;;;16.40;81.70;;;;;;5016861;28;20026;-75
2022/05/01 10:47:48;;;;;;;10.87;6.67;;;16.60;80.70;;;;;;5019690;28;20033;-74
2022/05/01 10:50:23;;;;;;;10.95;7.00;;;16.80;80.40;;;;;;5021863;28;20039;-75
2022/05/01 10:53:09;;;;;;;11.80;6.60;;;17.00;79.00;;;;;;5017846;28;20026;-74
2022/05/01 10:56:14;;;;;;;9.45;6.32;;;17.10;76.10;;;;;;5020204;28;20406;-75
2022/05/01 10:58:40;;;;;;;10.15;7.43;;;17.30;76.50;;;;;;5034936;28;20439;-74
2022/05/01 11:01:06;;;;;;;11.70;6.60;;;17.50;74.60;;;;;;5031917;28;20037;-75
2022/05/01 11:03:36;;;;;;;8.52;6.45;;;17.50;72.70;;;;;;5031456;28;20017;-75
2022/05/01 11:06:08;;;;;;;9.40;7.00;;;17.60;72.20;;;;;;5026033;28;20105;-76
2022/05/01 11:08:38;;;;;;;10.32;7.40;;;17.60;70.90;;;;;;5019469;28;20056;-76
2022/05/01 11:11:10;;;;;;;13.23;7.45;;;17.50;68.00;;;;;;5011579;28;20026;-75
2022/05/01 11:13:40;;;;;;;11.77;7.45;;;17.30;67.30;;;;;;5011728;28;20030;-74
2022/05/01 11:16:07;;;;;;;10.77;6.20;;;17.30;67.60;;;;;;5011854;28;20379;-75
2022/05/01 11:18:52;;;;;;;9.63;6.55;;;17.40;68.40;;;;;;5021235;28;20053;-74
2022/05/01 11:21:23;;;;;;;7.57;6.30;;;17.70;67.90;;;;;;5015419;28;20042;-76
2022/05/01 11:24:03;;;;;;;10.85;6.57;;;17.80;66.10;;;;;;5019781;28;20037;-75
2022/05/01 11:26:29;;;;;;;7.65;6.28;;;18.00;64.60;;;;;;5031046;28;20508;-77
2022/05/01 11:29:06;;;;;;;9.65;6.20;;;18.10;63.30;;;;;;5016552;28;20040;-75
2022/05/01 11:31:38;;;;;;;8.93;6.32;;;18.10;62.20;;;;;;5011495;28;20471;-75
2022/05/01 11:34:16;;;;;;;13.40;6.72;;;18.10;60.20;;;;;;5014545;28;20459;-74
2022/05/01 11:37:08;;;;;;;9.05;5.88;;;18.10;60.00;;;;;;5013608;28;20050;-74
2022/05/01 11:39:46;;;;;;;9.50;6.70;;;18.00;59.90;;;;;;5012522;28;20437;-76
2022/05/01 11:42:29;;;;;;;11.20;6.78;;;18.00;60.20;;;;;;5012330;28;20018;-76
2022/05/01 11:44:59;;;;;;;36.22;7.82;;;18.20;60.40;;;;;;5011692;28;20105;-76
2022/05/01 11:47:26;;;;;;;9.40;6.57;;;18.40;60.20;;;;;;5010926;28;20048;-75
2022/05/01 11:49:52;;;;;;;10.02;6.70;;;18.60;59.90;;;;;;5010351;28;20253;-76
2022/05/01 11:52:24;;;;;;;12.77;7.40;;;18.80;59.20;;;;;;5010724;28;20101;-76
2022/05/01 11:54:52;;;;;;;9.23;6.53;;;18.90;58.20;;;;;;5009390;28;20030;-76
2022/05/01 12:02:57;;;;;;;11.65;7.13;;;19.00;58.00;;;;;;5011414;28;20041;-75
2022/05/01 12:05:23;;;;;;;8.60;6.57;;;19.10;57.70;;;;;;5011424;28;20136;-75
2022/05/01 12:07:59;;;;;;;9.95;6.72;;;19.10;57.50;;;;;;5011453;28;20517;-75
2022/05/01 12:10:26;;;;;;;25.52;6.72;;;19.20;57.00;;;;;;5010944;28;20022;-75
2022/05/01 12:12:52;;;;;;;15.95;7.47;;;19.20;56.70;;;;;;5011035;28;20081;-74
2022/05/01 12:15:17;;;;;;;12.13;6.72;;;18.80;55.00;;;;;;5010986;28;20553;-75
2022/05/01 12:17:43;;;;;;;10.68;6.35;;;18.60;56.00;;;;;;5010993;28;20053;-76
2022/05/01 12:20:11;;;;;;;9.65;6.25;;;18.50;56.10;;;;;;5010964;28;20159;-75
2022/05/01 12:22:37;;;;;;;9.70;6.20;;;18.50;55.80;;;;;;5009907;28;20041;-75
2022/05/01 12:25:06;;;;;;;10.63;6.70;;;18.40;55.50;;;;;;5010417;28;20509;-75
2022/05/01 12:27:33;;;;;;;11.93;7.35;;;18.30;55.70;;;;;;5010971;28;20393;-75
2022/05/01 12:30:04;;;;;;;9.55;6.68;;;18.20;55.70;;;;;;5013375;28;20160;-77
2022/05/01 12:32:31;;;;;;;13.50;6.90;;;18.10;56.10;;;;;;5014086;28;20030;-76
2022/05/01 12:35:00;;;;;;;11.82;7.18;;;18.20;56.00;;;;;;5036140;28;20255;-76
2022/05/01 12:37:32;;;;;;;8.90;6.63;;;18.30;56.30;;;;;;5037522;28;20037;-77
2022/05/01 12:40:10;;;;;;;8.88;6.15;;;18.50;56.50;;;;;;5032770;28;20034;-76
2022/05/01 12:45:46;;;;;;;10.13;6.80;;;18.90;55.80;;;;;;5022352;28;20120;-74
2022/05/01 12:48:13;;;;;;;8.15;6.95;;;19.10;56.00;;;;;;5034279;28;20075;-77
2022/05/01 12:50:40;;;;;;;10.32;6.68;;;19.20;55.50;;;;;;5038314;28;20113;-78
2022/05/01 12:53:27;;;;;;;8.95;7.05;;;19.30;55.30;;;;;;5033794;28;20030;-76
2022/05/01 12:55:54;;;;;;;8.88;7.00;;;19.50;54.90;;;;;;5024728;28;20139;-77
2022/05/01 12:58:28;;;;;;;9.48;6.45;;;19.50;54.50;;;;;;5019157;28;20041;-77
2022/05/01 13:00:54;;;;;;;8.00;5.25;;;19.60;54.10;;;;;;5030731;28;20088;-76
2022/05/01 13:03:24;;;;;;;7.63;4.70;;;19.70;54.00;;;;;;5020649;28;20025;-76
2022/05/01 13:06:07;;;;;;;7.50;4.65;;;19.70;50.40;;;;;;5025165;28;20041;-75
2022/05/01 13:08:35;;;;;;;6.72;4.57;;;19.40;50.80;;;;;;5023275;28;20406;-74
2022/05/01 13:11:18;;;;;;;6.22;4.72;;;19.40;50.90;;;;;;5025974;28;20025;-76
2022/05/01 13:14:06;;;;;;;5.60;4.22;;;19.40;51.00;;;;;;5027781;28;20379;-77
2022/05/01 13:16:32;;;;;;;7.03;4.43;;;19.50;50.60;;;;;;5031428;28;20049;-76